Time;durP1;ratioP1;P1;durP2;ratioP2;P2;SDS_P1;SDS_P2;PMS_P1;PMS_P2;Temp;Humidity;BMP_temperature;BMP_pressure;BME280_temperature;BME280_humidity;BME280_pressure;Samples;Min_cycle;Max_cycle;Signal;HPM_P1;HPM_P2
2023/03/01 00:02:19;;;;;;;584.05;18.75;;;1.40;1.00;;;;;;5033510;28;20073;-64
2023/03/01 00:04:45;;;;;;;447.63;15.40;;;0.20;99.90;;;;;;5031087;28;20498;-64
2023/03/01 00:07:10;;;;;;;220.75;10.30;;;0.90;99.90;;;;;;5032778;28;20048;-64
2023/03/01 00:09:37;;;;;;;447.63;20.92;;;2.30;99.90;;;;;;5033555;28;20072;-64
2023/03/01 00:12:04;;;;;;;177.98;9.88;;;0.40;1.00;;;;;;5015287;28;20042;-62
2023/03/01 00:14:29;;;;;;;122.68;8.27;;;2.20;99.90;;;;;;5032087;28;20084;-64
2023/03/01 00:16:55;;;;;;;226.85;11.70;;;1.10;99.90;;;;;;5029074;28;20491;-64
2023/03/01 00:19:21;;;;;;;302.23;13.40;;;0.70;99.90;;;;;;5041486;28;20107;-64
2023/03/01 00:21:47;;;;;;;600.40;15.80;;;1.40;99.90;;;;;;5033199;28;20076;-62
2023/03/01 00:24:13;;;;;;;439.52;17.88;;;-0.50;99.90;;;;;;5032715;28;21573;-64
2023/03/01 00:26:39;;;;;;;416.38;10.98;;;-0.10;99.90;;;;;;5032686;28;20038;-64
2023/03/01 00:29:04;;;;;;;96.90;6.00;;;1.30;1.00;;;;;;5032570;28;20578;-64
2023/03/01 00:31:32;;;;;;;99.32;5.65;;;2.00;1.00;;;;;;5031849;28;20041;-64
2023/03/01 00:34:03;;;;;;;237.32;9.07;;;0.60;1.00;;;;;;5032838;28;20044;-64
2023/03/01 00:36:32;;;;;;;199.65;7.90;;;-0.30;1.00;;;;;;5032690;28;20068;-64
2023/03/01 00:38:57;;;;;;;267.95;8.18;;;2.20;88.40;;;;;;5026912;28;20049;-64
2023/03/01 00:41:26;;;;;;;403.42;14.07;;;2.10;55.40;;;;;;5033140;28;20510;-63
2023/03/01 00:43:52;;;;;;;123.80;11.00;;;-0.60;1.00;;;;;;5032053;28;20034;-64
2023/03/01 00:46:21;;;;;;;288.70;13.75;;;-0.60;1.00;;;;;;5032914;28;20540;-64
2023/03/01 00:48:47;;;;;;;1176.90;59.00;;;0.80;1.00;;;;;;5031913;28;20495;-63
2023/03/01 00:51:16;;;;;;;157.10;9.77;;;-0.70;15.10;;;;;;5032574;28;20043;-64
2023/03/01 00:53:43;;;;;;;335.45;12.63;;;1.00;35.00;;;;;;5031093;28;20045;-64
2023/03/01 00:56:11;;;;;;;474.55;15.75;;;-0.80;27.90;;;;;;5032838;28;20041;-63
2023/03/01 00:58:36;;;;;;;143.10;12.52;;;1.80;96.20;;;;;;5032499;28;20045;-64
2023/03/01 01:01:18;;;;;;;245.63;19.38;;;-0.20;99.90;;;;;;5032812;28;20450;-64
2023/03/01 01:03:53;;;;;;;205.50;14.48;;;1.60;99.90;;;;;;5032419;28;20579;-64
2023/03/01 01:06:24;;;;;;;174.80;13.82;;;0.60;99.90;;;;;;5031812;28;20037;-64
2023/03/01 01:08:52;;;;;;;217.82;12.95;;;1.80;99.90;;;;;;5031313;28;21475;-62
2023/03/01 01:11:17;;;;;;;171.57;12.00;;;-0.50;99.90;;;;;;5025182;28;20095;-64
2023/03/01 01:13:46;;;;;;;98.10;8.40;;;-0.60;99.90;;;;;;5031792;28;20042;-63
2023/03/01 01:16:11;;;;;;;46.20;7.13;;;0.20;99.90;;;;;;5029489;28;20069;-64
2023/03/01 01:18:37;;;;;;;89.35;7.30;;;1.40;48.70;;;;;;5030645;28;20551;-62
2023/03/01 01:21:08;;;;;;;165.88;7.78;;;1.30;25.60;;;;;;5031011;28;20419;-63
2023/03/01 01:23:35;;;;;;;180.93;10.38;;;-0.80;61.50;;;;;;5031141;28;20652;-63
2023/03/01 01:26:13;;;;;;;242.18;11.98;;;-1.10;99.90;;;;;;5013808;28;20120;-64
2023/03/01 01:28:39;;;;;;;591.40;19.20;;;-0.30;99.90;;;;;;5032032;28;20167;-63
2023/03/01 01:31:04;;;;;;;657.22;28.42;;;-0.50;99.90;;;;;;5031568;28;20129;-64
2023/03/01 01:33:30;;;;;;;299.83;10.85;;;-0.80;99.90;;;;;;5031350;28;20099;-62
2023/03/01 01:35:56;;;;;;;111.05;8.23;;;1.50;99.90;;;;;;5031057;28;20041;-64
2023/03/01 01:38:21;;;;;;;118.72;7.70;;;-0.30;99.90;;;;;;5030357;28;20402;-64
2023/03/01 01:40:49;;;;;;;355.40;15.93;;;1.00;99.90;;;;;;5031563;28;20442;-64
2023/03/01 01:43:27;;;;;;;422.50;21.88;;;1.40;99.90;;;;;;5030316;28;20067;-64
2023/03/01 01:45:57;;;;;;;133.27;7.53;;;-0.90;99.90;;;;;;5030347;28;20401;-64
2023/03/01 01:48:40;;;;;;;378.00;14.77;;;1.30;1.00;;;;;;5031615;28;20342;-64
2023/03/01 01:51:09;;;;;;;365.98;14.38;;;-1.00;1.00;;;;;;5031703;28;20029;-64
2023/03/01 01:53:36;;;;;;;392.27;15.00;;;1.00;99.90;;;;;;5029191;28;20040;-64
2023/03/01 01:56:06;;;;;;;247.48;12.38;;;-0.10;99.90;;;;;;5029798;28;20041;-64
2023/03/01 01:58:31;;;;;;;170.65;10.05;;;0.60;99.90;;;;;;5029685;28;20485;-64
2023/03/01 02:00:57;;;;;;;168.45;9.23;;;1.40;1.00;;;;;;5027143;28;20045;-64
2023/03/01 02:03:28;;;;;;;211.35;10.75;;;-1.30;1.00;;;;;;5030835;28;20564;-64
2023/03/01 02:06:03;;;;;;;119.15;8.98;;;1.40;1.00;;;;;;5028945;28;20048;-64
2023/03/01 02:08:32;;;;;;;113.25;9.82;;;-0.10;1.00;;;;;;5030652;28;20033;-64
2023/03/01 02:10:59;;;;;;;118.65;8.93;;;-0.40;1.00;;;;;;5030738;28;20469;-64
2023/03/01 02:13:26;;;;;;;192.98;10.35;;;-1.20;1.00;;;;;;5029721;28;20438;-64
2023/03/01 02:15:52;;;;;;;306.67;12.40;;;0.80;1.00;;;;;;5026591;28;20563;-64
2023/03/01 02:18:20;;;;;;;264.75;12.07;;;1.30;1.00;;;;;;5031223;28;20132;-64
2023/03/01 02:21:07;;;;;;;265.35;12.55;;;0.60;1.00;;;;;;5029995;28;20087;-64
2023/03/01 02:23:33;;;;;;;255.57;10.63;;;0.20;1.00;;;;;;5027497;28;20071;-64
2023/03/01 02:26:20;;;;;;;182.00;9.07;;;1.10;1.00;;;;;;5031060;28;20037;-64
2023/03/01 02:28:47;;;;;;;221.32;10.85;;;-1.40;1.00;;;;;;5023574;28;20042;-64
2023/03/01 02:34:05;;;;;;;327.35;11.15;;;0.90;1.00;;;;;;5029162;28;20053;-64
2023/03/01 02:36:36;;;;;;;270.65;8.90;;;0.60;99.90;;;;;;5030841;28;20037;-63
2023/03/01 02:39:05;;;;;;;184.40;7.65;;;-0.60;99.90;;;;;;5029645;28;20081;-64
2023/03/01 02:41:35;;;;;;;141.25;9.43;;;-1.80;99.90;;;;;;5029864;28;20537;-64
2023/03/01 02:44:02;;;;;;;87.13;7.95;;;0.70;1.00;;;;;;5029832;28;20128;-63
2023/03/01 02:46:28;;;;;;;158.30;8.77;;;0.90;1.00;;;;;;5030842;28;20065;-64
2023/03/01 02:48:58;;;;;;;246.07;12.90;;;-0.80;1.00;;;;;;5030067;28;20064;-64
2023/03/01 02:51:26;;;;;;;203.77;11.70;;;0.80;1.00;;;;;;5030048;28;20057;-63
2023/03/01 02:54:04;;;;;;;130.82;12.07;;;0.70;1.00;;;;;;5028911;28;20549;-63
2023/03/01 02:56:30;;;;;;;182.65;12.15;;;-1.10;1.00;;;;;;5029569;28;20446;-64
2023/03/01 02:59:00;;;;;;;1999.90;348.33;;;1.00;9.90;;;;;;5012227;28;20069;-64
2023/03/01 03:01:36;;;;;;;502.60;15.45;;;-1.50;25.00;;;;;;5028219;28;20491;-64
2023/03/01 03:04:17;;;;;;;331.73;16.20;;;-0.70;92.90;;;;;;5028580;28;20053;-64
2023/03/01 03:06:48;;;;;;;389.30;13.65;;;-1.10;99.90;;;;;;5029272;28;20434;-64
2023/03/01 03:09:15;;;;;;;338.20;13.32;;;0.10;99.90;;;;;;5029141;28;20049;-64
2023/03/01 03:11:42;;;;;;;381.48;13.23;;;0.40;99.90;;;;;;5028125;28;20396;-64
2023/03/01 03:14:12;;;;;;;510.95;22.98;;;0.30;99.90;;;;;;5027700;28;20239;-64
2023/03/01 03:16:41;;;;;;;476.83;17.52;;;1.60;99.90;;;;;;5029125;28;20072;-64
2023/03/01 03:19:07;;;;;;;424.23;14.95;;;-0.50;99.90;;;;;;5028537;28;20128;-63
2023/03/01 03:21:33;;;;;;;361.55;15.43;;;1.40;99.90;;;;;;5027919;28;20428;-64
2023/03/01 03:23:59;;;;;;;356.52;15.43;;;0.20;99.90;;;;;;5029486;28;20045;-64
2023/03/01 03:26:25;;;;;;;347.23;15.55;;;1.40;99.90;;;;;;5023260;28;20110;-64
2023/03/01 03:28:51;;;;;;;326.58;12.75;;;-1.00;99.90;;;;;;5029548;28;20492;-64
2023/03/01 03:31:16;;;;;;;214.90;11.93;;;1.50;99.90;;;;;;5028052;28;20041;-64
2023/03/01 03:33:42;;;;;;;212.20;12.82;;;0.70;99.90;;;;;;5030223;28;20030;-64
2023/03/01 03:36:12;;;;;;;326.92;13.50;;;1.30;99.90;;;;;;5028940;28;20539;-64
2023/03/01 03:38:39;;;;;;;220.88;13.00;;;0.80;99.90;;;;;;5028193;28;20060;-64
2023/03/01 03:41:07;;;;;;;282.08;17.00;;;-1.10;99.90;;;;;;5028596;28;20045;-64
2023/03/01 03:43:35;;;;;;;180.60;13.07;;;-0.80;99.90;;;;;;5028912;28;20386;-63
2023/03/01 03:46:05;;;;;;;270.40;12.32;;;1.40;99.90;;;;;;5028290;28;20514;-65
2023/03/01 03:48:35;;;;;;;287.63;17.92;;;1.70;99.90;;;;;;5040615;28;20411;-63
2023/03/01 03:51:01;;;;;;;319.30;16.60;;;1.70;99.90;;;;;;5018767;28;20499;-64
2023/03/01 03:53:28;;;;;;;496.55;16.42;;;0.40;99.90;;;;;;5028776;28;20124;-64
2023/03/01 03:55:54;;;;;;;488.77;21.42;;;1.80;99.90;;;;;;5027541;28;20042;-64
2023/03/01 03:58:22;;;;;;;266.48;16.15;;;1.80;99.90;;;;;;5029433;28;20037;-64
2023/03/01 04:00:51;;;;;;;242.95;13.18;;;-0.40;99.90;;;;;;5027014;28;20041;-64
2023/03/01 04:03:18;;;;;;;206.55;12.00;;;0.50;99.90;;;;;;5029077;28;20132;-64
2023/03/01 04:05:44;;;;;;;152.73;11.30;;;1.60;99.90;;;;;;5026163;28;20033;-64
2023/03/01 04:08:10;;;;;;;96.18;10.30;;;-0.10;99.90;;;;;;5028487;28;20045;-64
2023/03/01 04:10:42;;;;;;;142.02;10.07;;;1.70;99.90;;;;;;5027478;28;20073;-64
2023/03/01 04:13:12;;;;;;;206.35;10.75;;;-0.30;99.90;;;;;;5025079;28;20045;-64
2023/03/01 04:15:38;;;;;;;180.15;10.18;;;-0.90;99.90;;;;;;5027950;28;20037;-64
2023/03/01 04:18:04;;;;;;;121.40;9.13;;;-0.20;99.90;;;;;;5025747;28;20053;-64
2023/03/01 04:20:34;;;;;;;94.80;8.00;;;-0.60;99.90;;;;;;5029517;28;20068;-64
2023/03/01 04:23:26;;;;;;;145.65;11.98;;;1.80;99.90;;;;;;5027500;28;20047;-64
2023/03/01 04:25:55;;;;;;;161.25;10.98;;;1.70;99.90;;;;;;5027248;28;20069;-64
2023/03/01 04:28:40;;;;;;;175.27;10.63;;;-0.90;99.90;;;;;;5032593;28;20049;-64
2023/03/01 04:31:16;;;;;;;161.25;11.32;;;1.20;99.90;;;;;;5031311;28;20046;-64
2023/03/01 04:33:43;;;;;;;295.98;16.45;;;1.50;99.90;;;;;;5032981;28;20056;-64
2023/03/01 04:36:09;;;;;;;398.92;19.60;;;1.20;99.90;;;;;;5031423;28;20124;-64
2023/03/01 04:38:40;;;;;;;345.15;18.55;;;1.40;99.90;;;;;;5031565;28;20037;-64
2023/03/01 04:41:07;;;;;;;270.40;16.45;;;1.50;99.90;;;;;;5029739;28;21541;-64
2023/03/01 04:43:34;;;;;;;249.23;13.10;;;-0.90;99.90;;;;;;5048304;28;20034;-64
2023/03/01 04:46:05;;;;;;;409.73;14.27;;;-0.10;99.90;;;;;;5030386;28;20120;-64
2023/03/01 04:48:32;;;;;;;264.83;11.75;;;-0.10;99.90;;;;;;5030754;28;20042;-64
2023/03/01 04:50:59;;;;;;;223.63;12.07;;;0.50;99.90;;;;;;5031644;28;20041;-64
2023/03/01 04:53:26;;;;;;;251.65;15.98;;;-0.70;99.90;;;;;;5030903;28;20054;-64
2023/03/01 04:55:51;;;;;;;314.02;19.80;;;-0.90;99.90;;;;;;5046893;28;20045;-63
2023/03/01 04:58:17;;;;;;;428.88;17.75;;;-0.80;99.90;;;;;;5032644;28;20439;-63
2023/03/01 05:00:43;;;;;;;190.30;12.23;;;2.00;99.90;;;;;;5031775;28;20079;-64
2023/03/01 05:03:08;;;;;;;110.50;10.70;;;0.00;99.90;;;;;;5031412;28;20411;-63
2023/03/01 05:05:36;;;;;;;124.00;10.57;;;-0.30;99.90;;;;;;5031763;28;20034;-64
2023/03/01 05:08:05;;;;;;;113.63;11.13;;;2.10;99.90;;;;;;5031491;28;20124;-64
2023/03/01 05:10:32;;;;;;;64.03;11.50;;;-0.10;99.90;;;;;;5032742;28;20049;-64
2023/03/01 05:12:59;;;;;;;57.88;12.80;;;2.00;99.90;;;;;;5031257;28;20087;-64
2023/03/01 05:15:29;;;;;;;303.60;17.13;;;1.90;99.90;;;;;;5030986;28;20049;-63
2023/03/01 05:17:58;;;;;;;762.70;59.25;;;-0.80;99.90;;;;;;5025582;28;20081;-64
2023/03/01 05:20:25;;;;;;;220.20;13.60;;;1.20;99.90;;;;;;5031571;28;20042;-64
2023/03/01 05:22:54;;;;;;;258.52;14.65;;;0.20;99.90;;;;;;5029652;28;20083;-64
2023/03/01 05:25:21;;;;;;;274.23;17.13;;;2.10;99.90;;;;;;5030602;28;20053;-64
2023/03/01 05:27:46;;;;;;;388.88;16.88;;;0.30;99.90;;;;;;5029559;28;20048;-64
2023/03/01 05:30:16;;;;;;;446.17;20.70;;;1.30;99.90;;;;;;5030630;28;20128;-64
2023/03/01 05:32:55;;;;;;;198.98;15.38;;;1.90;99.90;;;;;;5030424;28;20048;-64
2023/03/01 05:35:21;;;;;;;244.32;13.65;;;1.50;99.90;;;;;;5014176;28;20077;-64
2023/03/01 05:37:49;;;;;;;128.15;10.85;;;1.50;99.90;;;;;;5029219;28;20049;-64
2023/03/01 05:40:20;;;;;;;303.00;17.80;;;1.60;99.90;;;;;;5030717;28;20041;-64
2023/03/01 05:42:56;;;;;;;185.82;11.93;;;-1.00;99.90;;;;;;5029140;28;20454;-64
2023/03/01 05:45:23;;;;;;;123.43;10.80;;;-0.80;99.90;;;;;;5030188;28;20060;-64
2023/03/01 05:47:50;;;;;;;47.13;9.27;;;1.10;99.90;;;;;;5030588;28;20455;-64
2023/03/01 05:50:27;;;;;;;81.60;9.75;;;0.10;99.90;;;;;;5031164;28;20270;-64
2023/03/01 05:53:08;;;;;;;116.53;10.75;;;-0.60;99.90;;;;;;5024262;28;20038;-64
2023/03/01 05:55:35;;;;;;;76.50;10.10;;;1.10;99.90;;;;;;5025990;28;20396;-64
2023/03/01 05:58:03;;;;;;;89.15;11.18;;;0.30;99.90;;;;;;5029862;28;20145;-64
2023/03/01 06:00:30;;;;;;;95.15;12.95;;;0.50;99.90;;;;;;5030953;28;20125;-64
2023/03/01 06:02:57;;;;;;;175.63;12.25;;;1.80;99.90;;;;;;5028715;28;20091;-64
2023/03/01 06:05:23;;;;;;;116.65;13.18;;;1.20;99.90;;;;;;5027086;28;20034;-64
2023/03/01 06:07:50;;;;;;;204.10;12.73;;;1.80;99.90;;;;;;5011320;28;20092;-63
2023/03/01 06:10:16;;;;;;;143.85;8.15;;;-0.10;99.90;;;;;;5026631;28;20135;-63
2023/03/01 06:12:43;;;;;;;122.72;8.82;;;-0.30;99.90;;;;;;5030450;28;20442;-63
2023/03/01 06:15:10;;;;;;;71.30;7.47;;;-0.20;99.90;;;;;;5027583;28;20115;-64
2023/03/01 06:17:38;;;;;;;136.05;10.35;;;-1.30;99.90;;;;;;5027265;28;20090;-64
2023/03/01 06:20:05;;;;;;;47.03;7.40;;;1.40;99.90;;;;;;5042269;28;20054;-64
2023/03/01 06:22:31;;;;;;;50.33;8.10;;;1.30;99.90;;;;;;5029133;28;20079;-63
2023/03/01 06:24:56;;;;;;;97.82;8.25;;;1.10;99.90;;;;;;5027829;28;20046;-63
2023/03/01 06:27:22;;;;;;;60.22;7.47;;;1.50;99.90;;;;;;5026496;28;20037;-64
2023/03/01 06:29:48;;;;;;;97.10;8.02;;;1.40;99.90;;;;;;5028425;28;20091;-64
2023/03/01 06:32:14;;;;;;;114.93;8.18;;;-1.50;99.90;;;;;;5030374;28;20049;-63
2023/03/01 06:34:39;;;;;;;59.92;8.50;;;-1.10;99.90;;;;;;5030280;28;20038;-64
2023/03/01 06:37:06;;;;;;;73.88;10.40;;;-0.20;99.90;;;;;;5028140;28;20037;-63
2023/03/01 06:39:32;;;;;;;116.63;9.70;;;-0.50;99.90;;;;;;5029311;28;20511;-63
2023/03/01 06:41:58;;;;;;;156.68;12.32;;;-1.60;99.90;;;;;;5028068;28;20041;-62
2023/03/01 06:44:24;;;;;;;109.22;9.45;;;1.20;99.90;;;;;;5028744;28;21525;-64
2023/03/01 06:46:50;;;;;;;123.45;9.63;;;-1.50;99.90;;;;;;5026590;28;20136;-64
2023/03/01 06:49:17;;;;;;;115.90;10.02;;;1.30;99.90;;;;;;5027300;28;20042;-64
2023/03/01 06:51:44;;;;;;;108.85;9.90;;;-1.00;99.90;;;;;;5021227;28;20038;-63
2023/03/01 06:54:10;;;;;;;76.20;8.32;;;-1.10;99.90;;;;;;5028920;28;20041;-63
2023/03/01 06:56:35;;;;;;;20.60;6.03;;;0.60;99.90;;;;;;5028489;28;20075;-63
2023/03/01 06:59:02;;;;;;;11.05;5.55;;;-0.10;99.90;;;;;;5025555;28;20073;-64
2023/03/01 07:01:28;;;;;;;61.47;5.40;;;1.20;99.90;;;;;;5025398;28;20045;-63
2023/03/01 07:03:54;;;;;;;69.70;5.28;;;-1.20;99.90;;;;;;5027969;28;20029;-63
2023/03/01 07:06:19;;;;;;;51.67;5.03;;;-1.40;99.90;;;;;;5042352;28;20040;-63
2023/03/01 07:08:45;;;;;;;38.70;4.78;;;-1.40;99.90;;;;;;5026224;28;20098;-64
2023/03/01 07:11:11;;;;;;;32.80;5.55;;;0.70;99.90;;;;;;5026411;28;20034;-65
2023/03/01 07:13:36;;;;;;;87.25;6.28;;;-1.00;99.90;;;;;;5022271;28;20435;-65
2023/03/01 07:16:02;;;;;;;28.15;4.45;;;1.10;99.90;;;;;;5026674;28;20533;-66
2023/03/01 07:18:27;;;;;;;90.35;5.70;;;0.70;99.90;;;;;;5027497;28;20483;-65
2023/03/01 07:20:53;;;;;;;94.93;6.50;;;-1.30;99.90;;;;;;5025245;28;20041;-64
2023/03/01 07:23:19;;;;;;;59.72;5.72;;;1.30;99.90;;;;;;5022924;28;20107;-64
2023/03/01 07:25:50;;;;;;;87.68;6.30;;;0.20;99.90;;;;;;5028221;28;20045;-63
2023/03/01 07:28:16;;;;;;;119.50;8.30;;;-1.20;99.90;;;;;;5022585;28;20056;-63
2023/03/01 07:30:41;;;;;;;169.90;10.40;;;1.20;99.90;;;;;;5030238;28;20041;-63
2023/03/01 07:33:07;;;;;;;156.00;8.15;;;-0.60;99.90;;;;;;5030148;28;20033;-63
2023/03/01 07:35:33;;;;;;;70.30;7.25;;;-0.90;99.90;;;;;;5030152;28;20052;-64
2023/03/01 07:37:59;;;;;;;59.58;7.53;;;0.60;99.90;;;;;;5030293;28;20041;-64
2023/03/01 07:40:24;;;;;;;52.22;7.45;;;-0.90;99.90;;;;;;5030399;28;20033;-64
2023/03/01 07:42:55;;;;;;;22.55;6.80;;;1.30;99.90;;;;;;5028807;28;20463;-64
2023/03/01 07:45:21;;;;;;;99.40;9.45;;;-0.10;99.90;;;;;;5030409;28;20076;-63
2023/03/01 07:47:46;;;;;;;40.42;9.25;;;0.00;99.90;;;;;;5026894;28;20076;-63
2023/03/01 07:50:13;;;;;;;11.70;7.30;;;0.90;99.90;;;;;;5025879;28;20045;-64
2023/03/01 07:52:38;;;;;;;11.93;8.07;;;2.00;99.90;;;;;;5024937;28;20140;-65
2023/03/01 07:55:04;;;;;;;11.13;8.48;;;1.30;99.90;;;;;;5028507;28;20128;-64
2023/03/01 07:57:31;;;;;;;11.23;7.68;;;-0.30;99.90;;;;;;5027474;28;20042;-64
2023/03/01 07:59:57;;;;;;;10.40;7.60;;;-0.50;99.90;;;;;;5027742;28;20123;-64
2023/03/01 08:02:22;;;;;;;429.05;20.55;;;1.20;99.90;;;;;;5024869;28;20037;-64
2023/03/01 08:04:48;;;;;;;10.90;7.65;;;2.40;99.90;;;;;;5024653;28;20083;-64
2023/03/01 08:07:14;;;;;;;9.50;7.30;;;2.50;99.90;;;;;;5024718;28;20135;-64
2023/03/01 08:09:39;;;;;;;11.02;8.00;;;2.70;99.90;;;;;;5031850;28;20117;-64
2023/03/01 08:12:05;;;;;;;10.63;7.70;;;0.30;99.90;;;;;;5027453;28;20611;-64
2023/03/01 08:14:32;;;;;;;11.85;7.65;;;0.40;99.90;;;;;;5028164;28;20034;-64
2023/03/01 08:16:58;;;;;;;9.60;7.50;;;0.20;99.90;;;;;;5030565;28;20388;-64
2023/03/01 08:19:23;;;;;;;10.07;7.78;;;2.70;99.90;;;;;;5032066;28;20104;-64
2023/03/01 08:21:49;;;;;;;10.35;7.35;;;2.70;99.90;;;;;;5029727;28;20037;-64
2023/03/01 08:24:15;;;;;;;11.10;8.63;;;2.00;99.90;;;;;;5028165;28;20044;-64
2023/03/01 08:26:40;;;;;;;12.10;8.70;;;2.40;99.90;;;;;;5027922;28;20137;-64
2023/03/01 08:29:06;;;;;;;12.70;9.85;;;2.20;99.90;;;;;;5030200;28;20124;-64
2023/03/01 08:31:38;;;;;;;14.07;9.93;;;1.10;99.90;;;;;;5030717;28;20048;-64
2023/03/01 08:34:08;;;;;;;13.40;9.88;;;2.40;99.90;;;;;;5029342;28;20029;-64
2023/03/01 08:36:39;;;;;;;14.43;10.48;;;3.50;99.90;;;;;;5028897;28;20128;-64
2023/03/01 08:39:06;;;;;;;13.98;9.52;;;2.00;99.90;;;;;;5029305;28;20706;-64
2023/03/01 08:41:32;;;;;;;16.67;11.25;;;3.80;99.90;;;;;;5028469;28;20144;-64
2023/03/01 08:43:58;;;;;;;17.48;12.02;;;1.40;99.90;;;;;;5031894;28;20112;-64
2023/03/01 08:46:29;;;;;;;19.23;13.23;;;3.50;99.90;;;;;;5030161;28;20042;-64
2023/03/01 08:48:54;;;;;;;17.30;13.18;;;4.60;99.90;;;;;;5032246;28;20038;-64
2023/03/01 08:51:21;;;;;;;18.35;13.63;;;4.70;99.90;;;;;;5031563;28;20087;-63
2023/03/01 08:53:48;;;;;;;20.67;14.23;;;4.00;99.90;;;;;;5030292;28;20067;-64
2023/03/01 08:56:14;;;;;;;21.85;14.95;;;2.40;99.90;;;;;;5029751;28;20041;-64
2023/03/01 08:58:44;;;;;;;381.10;29.33;;;3.10;99.90;;;;;;5030081;28;20037;-63
2023/03/01 09:01:12;;;;;;;21.30;16.05;;;3.20;99.90;;;;;;5030375;28;20033;-63
2023/03/01 09:03:38;;;;;;;21.38;15.65;;;4.80;99.90;;;;;;5031067;28;20079;-63
2023/03/01 09:06:05;;;;;;;22.83;18.52;;;4.10;99.90;;;;;;5025225;28;20447;-63
2023/03/01 09:08:30;;;;;;;21.35;18.52;;;4.40;99.90;;;;;;5029455;28;20051;-63
2023/03/01 09:10:56;;;;;;;22.98;19.45;;;4.90;99.90;;;;;;5029702;28;20369;-63
2023/03/01 09:13:27;;;;;;;22.10;18.17;;;5.10;99.90;;;;;;5029289;28;20518;-64
2023/03/01 09:15:52;;;;;;;20.48;16.95;;;7.00;99.90;;;;;;5026562;28;20045;-64
2023/03/01 09:18:18;;;;;;;20.00;17.85;;;5.40;99.90;;;;;;5030552;28;20041;-63
2023/03/01 09:20:43;;;;;;;20.92;17.58;;;7.30;99.90;;;;;;5029851;28;20042;-63
2023/03/01 09:23:09;;;;;;;22.13;18.27;;;5.70;99.90;;;;;;5026317;28;20042;-63
2023/03/01 09:25:35;;;;;;;21.45;17.73;;;5.90;99.90;;;;;;5029490;28;20569;-64
2023/03/01 09:28:00;;;;;;;22.75;18.27;;;6.10;99.90;;;;;;5029529;28;20482;-63
2023/03/01 09:30:26;;;;;;;23.10;17.52;;;6.30;99.90;;;;;;5028108;28;20034;-63
2023/03/01 09:32:52;;;;;;;20.33;16.10;;;6.80;99.90;;;;;;5029779;28;20044;-64
2023/03/01 09:35:18;;;;;;;25.13;17.27;;;6.50;99.90;;;;;;5026254;28;20397;-63
2023/03/01 09:37:45;;;;;;;27.88;16.80;;;6.40;99.90;;;;;;5030304;28;20041;-63
2023/03/01 09:40:22;;;;;;;20.98;16.95;;;7.90;99.90;;;;;;5030808;28;20092;-63
2023/03/01 09:42:51;;;;;;;26.98;18.15;;;5.90;99.90;;;;;;5028125;28;20454;-63
2023/03/01 09:45:35;;;;;;;24.60;17.02;;;7.40;99.90;;;;;;5030679;28;20033;-63
2023/03/01 09:48:03;;;;;;;22.98;15.70;;;7.10;99.90;;;;;;5011768;28;20073;-63
2023/03/01 09:50:35;;;;;;;20.67;16.70;;;5.70;99.90;;;;;;5028395;28;20037;-63
2023/03/01 09:53:06;;;;;;;24.50;17.20;;;6.20;99.90;;;;;;5027140;28;20138;-63
2023/03/01 09:55:55;;;;;;;23.45;15.07;;;6.60;99.90;;;;;;5026946;28;20034;-63
2023/03/01 09:58:30;;;;;;;18.50;14.70;;;6.50;99.90;;;;;;5012961;28;20048;-63
2023/03/01 10:01:02;;;;;;;16.85;14.90;;;6.10;99.90;;;;;;5027671;28;20120;-63
2023/03/01 10:03:34;;;;;;;20.02;15.65;;;7.50;99.90;;;;;;5028722;28;20109;-63
2023/03/01 10:06:14;;;;;;;18.85;16.05;;;6.60;99.90;;;;;;5030075;28;20041;-63
2023/03/01 10:09:04;;;;;;;18.88;15.98;;;8.00;99.90;;;;;;5029699;28;20522;-63
2023/03/01 10:11:38;;;;;;;19.15;16.02;;;7.10;99.90;;;;;;5030882;28;20059;-63
2023/03/01 10:14:39;;;;;;;23.92;16.27;;;6.90;99.90;;;;;;5028768;28;20038;-63
2023/03/01 10:17:04;;;;;;;19.15;16.27;;;6.70;1.00;;;;;;5030154;28;20483;-63
2023/03/01 10:19:36;;;;;;;26.55;16.23;;;7.70;90.10;;;;;;5029590;28;20069;-63
2023/03/01 10:22:24;;;;;;;27.42;16.38;;;8.20;99.90;;;;;;5029916;28;20037;-63
2023/03/01 10:24:52;;;;;;;26.27;16.40;;;8.50;99.90;;;;;;5025763;28;20037;-63
2023/03/01 10:27:23;;;;;;;18.02;14.73;;;8.70;1.00;;;;;;5030091;28;20033;-63
2023/03/01 10:30:19;;;;;;;20.45;14.77;;;7.60;1.00;;;;;;5028700;28;20487;-63
2023/03/01 10:32:48;;;;;;;17.85;13.65;;;7.60;1.00;;;;;;5025361;28;20041;-63
2023/03/01 10:35:26;;;;;;;16.92;14.75;;;7.50;51.20;;;;;;5029299;28;20037;-64
2023/03/01 10:38:10;;;;;;;19.35;14.13;;;7.80;99.90;;;;;;5028579;28;20124;-63
2023/03/01 10:41:05;;;;;;;20.52;13.80;;;7.90;1.00;;;;;;5029821;28;20478;-63
2023/03/01 10:43:50;;;;;;;17.90;14.63;;;8.30;99.90;;;;;;5025859;28;20045;-64
2023/03/01 10:46:37;;;;;;;15.13;12.68;;;8.80;1.00;;;;;;5022322;28;20052;-63
2023/03/01 10:49:07;;;;;;;15.02;12.20;;;8.20;99.90;;;;;;5027588;28;20523;-63
2023/03/01 10:51:33;;;;;;;16.77;10.70;;;7.80;1.00;;;;;;5030003;28;20652;-63
2023/03/01 10:53:58;;;;;;;50.22;12.18;;;8.40;99.90;;;;;;5027860;28;20049;-63
2023/03/01 10:56:25;;;;;;;16.17;10.38;;;8.50;99.90;;;;;;5026931;28;20037;-63
2023/03/01 10:59:05;;;;;;;12.15;10.10;;;8.60;62.70;;;;;;5029477;28;20087;-63
2023/03/01 11:01:34;;;;;;;11.23;9.57;;;7.80;1.00;;;;;;5022807;28;20041;-63
2023/03/01 11:04:05;;;;;;;13.32;10.55;;;8.60;1.00;;;;;;5028183;28;20112;-63
2023/03/01 11:06:32;;;;;;;13.80;10.23;;;9.30;99.90;;;;;;5025166;28;20107;-63
2023/03/01 11:09:18;;;;;;;13.77;10.13;;;8.80;99.90;;;;;;5028270;28;20049;-63
2023/03/01 11:11:44;;;;;;;14.98;10.32;;;9.10;99.90;;;;;;5026665;28;20411;-63
2023/03/01 11:14:29;;;;;;;14.52;9.82;;;8.80;99.90;;;;;;5026263;28;20034;-63
2023/03/01 11:17:01;;;;;;;14.85;9.60;;;9.40;60.30;;;;;;5027943;28;20038;-64
2023/03/01 11:19:27;;;;;;;13.00;10.27;;;8.70;1.00;;;;;;5026381;28;20053;-63
2023/03/01 11:22:14;;;;;;;12.20;10.35;;;9.10;1.00;;;;;;5026606;28;20042;-63
2023/03/01 11:24:46;;;;;;;13.60;9.45;;;8.40;1.00;;;;;;5027649;28;20045;-63
2023/03/01 11:27:32;;;;;;;15.25;10.70;;;8.60;99.90;;;;;;5040081;28;20404;-63
2023/03/01 11:30:25;;;;;;;14.20;10.98;;;8.60;99.90;;;;;;5023358;28;20045;-63
2023/03/01 11:33:08;;;;;;;13.98;10.52;;;8.50;99.90;;;;;;5029694;28;20041;-64
2023/03/01 11:36:00;;;;;;;11.68;9.95;;;8.00;99.90;;;;;;5026103;28;20030;-64
2023/03/01 11:38:28;;;;;;;12.32;9.75;;;7.90;99.90;;;;;;5032888;28;20572;-64
2023/03/01 11:41:12;;;;;;;10.98;9.60;;;7.90;99.90;;;;;;5030288;28;20107;-63
2023/03/01 11:43:49;;;;;;;10.80;8.50;;;9.40;99.90;;;;;;5029120;28;20056;-64
2023/03/01 11:46:33;;;;;;;10.77;9.65;;;8.30;99.90;;;;;;5028330;28;20511;-64
2023/03/01 11:49:29;;;;;;;12.98;9.38;;;8.30;99.90;;;;;;5027891;28;20110;-64
2023/03/01 11:52:25;;;;;;;15.25;10.30;;;8.40;99.90;;;;;;5032508;28;20476;-64
2023/03/01 11:55:10;;;;;;;11.10;9.95;;;8.20;99.90;;;;;;5031891;28;20046;-64
2023/03/01 11:57:49;;;;;;;12.60;10.48;;;8.30;99.90;;;;;;5034195;28;20453;-64
2023/03/01 12:00:37;;;;;;;12.60;9.95;;;8.70;99.90;;;;;;5044831;28;20442;-64
2023/03/01 12:03:30;;;;;;;13.60;10.32;;;8.80;99.90;;;;;;5029104;28;20522;-64
2023/03/01 12:06:31;;;;;;;16.35;10.38;;;8.60;99.90;;;;;;5030005;28;20537;-64
2023/03/01 12:09:35;;;;;;;12.32;10.55;;;8.60;99.70;;;;;;5029300;28;20046;-64
2023/03/01 12:12:37;;;;;;;12.43;10.25;;;8.50;77.40;;;;;;5029878;28;20045;-64
2023/03/01 12:15:30;;;;;;;12.23;9.85;;;8.30;50.90;;;;;;5029448;28;20033;-64
2023/03/01 12:18:33;;;;;;;15.45;10.70;;;8.30;44.40;;;;;;5029805;28;20139;-64
2023/03/01 12:21:10;;;;;;;13.00;10.35;;;8.30;40.30;;;;;;5032079;28;20046;-64
2023/03/01 12:23:57;;;;;;;16.38;10.82;;;8.50;32.70;;;;;;5032473;28;20502;-64
2023/03/01 12:26:27;;;;;;;12.80;10.52;;;8.60;33.50;;;;;;5026534;28;20045;-64
2023/03/01 12:29:20;;;;;;;11.20;9.93;;;9.50;25.00;;;;;;5029660;28;20373;-64
2023/03/01 12:32:21;;;;;;;12.48;10.55;;;8.50;15.50;;;;;;5030547;28;20051;-64
2023/03/01 12:34:49;;;;;;;11.50;9.77;;;8.50;11.10;;;;;;5028045;28;20072;-65
2023/03/01 12:37:25;;;;;;;11.77;9.60;;;8.60;9.50;;;;;;5030220;28;20124;-65
2023/03/01 12:40:05;;;;;;;17.17;11.55;;;8.70;10.60;;;;;;5030776;28;20033;-64
2023/03/01 12:42:47;;;;;;;13.02;11.65;;;8.70;6.80;;;;;;5031898;28;20041;-64
2023/03/01 12:45:50;;;;;;;14.85;11.30;;;8.70;4.20;;;;;;5030216;28;20048;-64
2023/03/01 12:48:35;;;;;;;13.88;11.02;;;8.70;1.00;;;;;;5029948;28;20128;-65
2023/03/01 12:51:10;;;;;;;14.35;11.52;;;8.60;1.00;;;;;;5024395;28;20543;-64
2023/03/01 12:53:44;;;;;;;14.48;11.77;;;8.70;1.00;;;;;;5025716;28;20076;-65
2023/03/01 12:56:14;;;;;;;16.10;12.38;;;8.70;1.00;;;;;;5027944;28;20140;-64